UUYY 031600Z 23004MPS 9999 -SNRA BKN012 00/M01 Q1023 R18/550245 NOSIG RMK QFE759/1012
QNH:(hPa/inHg/mmHg)1023 / 30.21 / 767
QFE:(hPa/inHg/mmHg)1010 / 29.84 / 758
Temperature0
Dew Point-1
Visibility> 10000
WeatherLight Snow Rain
Cloud CoverBKN (1200);
Transition Height3000 m./10200 ft.
Transition LevelFL110
SQUAWK